createdAt,value
2022-08-26T00:03:51.279Z,80.08
2022-08-26T00:08:50.792Z,82.45
2022-08-26T00:13:50.200Z,82.92
2022-08-26T00:18:49.818Z,76.22
2022-08-26T00:23:46.084Z,73.48
2022-08-26T00:28:51.959Z,75.23
2022-08-26T00:33:44.489Z,77.53
2022-08-26T00:38:43.967Z,77.81
2022-08-26T00:43:49.539Z,77.96
2022-08-26T00:48:45.960Z,76.94
2022-08-26T00:53:42.684Z,72.56
2022-08-26T00:58:48.105Z,70.74
2022-08-26T01:03:48.163Z,70.44
2022-08-26T01:08:46.564Z,69.72
2022-08-26T01:13:39.845Z,69.62
2022-08-26T01:18:39.051Z,68.33
2022-08-26T01:23:41.502Z,67.68
2022-08-26T01:28:41.967Z,68.50
2022-08-26T01:33:42.277Z,69.04
2022-08-26T01:38:41.325Z,67.10
2022-08-26T01:43:40.618Z,67.75
2022-08-26T01:48:40.341Z,68.27
2022-08-26T01:53:39.657Z,69.60
2022-08-26T01:58:42.183Z,68.54
2022-08-26T02:03:42.299Z,63.59
2022-08-26T02:08:41.018Z,65.45
2022-08-26T02:13:40.484Z,68.31
2022-08-26T02:18:34.531Z,68.29
2022-08-26T02:23:33.491Z,69.10
2022-08-26T02:28:35.967Z,69.33
2022-08-26T02:33:35.193Z,63.80
2022-08-26T02:38:35.046Z,61.57
2022-08-26T02:43:34.504Z,65.92
2022-08-26T02:48:34.224Z,64.21
2022-08-26T02:53:36.372Z,64.38
2022-08-26T02:58:29.964Z,64.78
2022-08-26T03:03:35.756Z,64.98
2022-08-26T03:08:36.483Z,66.77
2022-08-26T03:13:34.960Z,66.75
2022-08-26T03:18:27.711Z,70.34
2022-08-26T03:23:26.966Z,66.79
2022-08-26T03:28:29.244Z,63.66
2022-08-26T03:33:28.509Z,66.67
2022-08-26T03:38:30.688Z,65.75
2022-08-26T03:43:23.874Z,67.98
2022-08-26T03:48:23.165Z,65.64
2022-08-26T03:53:25.927Z,65.44
2022-08-26T03:58:25.247Z,65.90
2022-08-26T04:03:27.789Z,71.83
2022-08-26T04:08:21.017Z,65.90
2022-08-26T04:13:20.325Z,60.96
2022-08-26T04:18:22.587Z,49.13
2022-08-26T04:23:25.731Z,51.29
2022-08-26T04:28:18.992Z,50.68
2022-08-26T04:33:18.345Z,51.75
2022-08-26T04:38:21.604Z,57.48
2022-08-26T04:43:19.981Z,55.97
2022-08-26T04:48:19.368Z,59.32
2022-08-26T04:53:22.713Z,48.07
2022-08-26T04:58:15.272Z,59.49
2022-08-26T05:03:14.443Z,50.04
2022-08-26T05:08:13.748Z,45.74
2022-08-26T05:13:19.108Z,58.45
2022-08-26T05:18:12.985Z,64.78
2022-08-26T05:23:15.417Z,62.84
2022-08-26T05:28:14.743Z,49.11
2022-08-26T05:33:11.872Z,54.47
2022-08-26T05:38:16.704Z,62.38
2022-08-26T05:43:09.974Z,66.59
2022-08-26T05:48:09.983Z,82.18
2022-08-26T05:53:16.390Z,74.42
2022-08-26T05:58:08.882Z,72.01
2022-08-26T06:03:11.478Z,83.41
2022-08-26T06:08:11.433Z,62.74
2022-08-26T06:13:11.759Z,68.42
2022-08-26T06:18:10.574Z,63.18
2022-08-26T06:23:10.101Z,69.87
2022-08-26T06:28:05.780Z,70.39
2022-08-26T06:33:14.541Z,66.63
2022-08-26T06:38:04.826Z,61.51
2022-08-26T06:43:04.382Z,70.63
2022-08-26T06:48:11.166Z,65.73
2022-08-26T06:53:06.833Z,57.63
2022-08-26T06:58:03.258Z,55.61
2022-08-26T07:03:06.427Z,53.30
2022-08-26T07:08:05.166Z,62.38
2022-08-26T07:13:05.793Z,61.82
2022-08-26T07:18:02.283Z,48.75
2022-08-26T07:23:00.964Z,53.95
2022-08-26T07:28:06.336Z,55.93
2022-08-26T07:33:02.207Z,55.07
2022-08-26T07:38:01.584Z,51.85
2022-08-26T07:42:57.460Z,55.60
2022-08-26T07:48:03.991Z,52.35
2022-08-26T07:52:56.259Z,66.03
2022-08-26T07:57:55.483Z,63.22
2022-08-26T08:03:00.930Z,61.23
2022-08-26T08:08:26.910Z,51.14
2022-08-26T08:12:53.755Z,51.79
2022-08-26T08:17:54.046Z,52.71
2022-08-26T08:22:56.051Z,57.29
2022-08-26T08:27:55.907Z,61.91
2022-08-26T08:32:55.287Z,54.71
2022-08-26T08:37:54.551Z,63.47
2022-08-26T08:42:53.849Z,60.48
2022-08-26T08:48:00.697Z,66.21
2022-08-26T08:52:52.233Z,57.67
2022-08-26T08:57:53.760Z,53.37
2022-08-26T09:02:54.252Z,56.52
2022-08-26T09:07:54.716Z,54.10
2022-08-26T09:12:47.494Z,75.27
2022-08-26T09:17:46.788Z,66.74
2022-08-26T09:22:49.100Z,63.35
2022-08-26T09:27:50.468Z,69.53
2022-08-26T09:32:55.982Z,66.17
2022-08-26T09:42:43.592Z,62.75
2022-08-26T09:47:49.324Z,62.04
2022-08-26T09:52:43.060Z,66.80
2022-08-26T09:57:45.356Z,63.44
2022-08-26T10:02:49.500Z,68.57
2022-08-26T10:07:41.221Z,68.90
2022-08-26T10:12:46.209Z,63.05
2022-08-26T10:17:39.626Z,66.75
2022-08-26T10:22:38.935Z,58.94
2022-08-26T10:27:51.116Z,61.87
2022-08-26T10:32:41.386Z,70.10
2022-08-26T10:37:43.248Z,57.40
2022-08-26T10:42:37.473Z,54.38
2022-08-26T10:47:36.502Z,56.42
2022-08-26T10:52:38.851Z,56.82
2022-08-26T10:57:38.385Z,57.50
2022-08-26T11:02:37.769Z,52.50
2022-08-26T11:07:37.099Z,50.35
2022-08-26T11:12:37.453Z,55.99
2022-08-26T11:17:32.899Z,54.84
2022-08-26T11:22:35.282Z,53.59
2022-08-26T11:27:35.525Z,56.20
2022-08-26T11:32:34.547Z,57.49
2022-08-26T11:37:33.167Z,62.57
2022-08-26T11:42:35.789Z,61.03
2022-08-26T11:47:29.553Z,61.87
2022-08-26T11:52:29.353Z,56.35
2022-08-26T11:57:34.346Z,60.02
2022-08-26T12:02:30.699Z,57.94
2022-08-26T12:07:30.822Z,57.19
2022-08-26T12:12:34.792Z,55.53
2022-08-26T12:17:34.292Z,56.36
2022-08-26T12:22:31.996Z,59.14
2022-08-26T12:27:26.947Z,58.04
2022-08-26T12:32:28.798Z,57.18
2022-08-26T12:37:24.508Z,59.34
2022-08-26T12:42:27.765Z,61.61
2022-08-26T12:47:35.149Z,62.41
2022-08-26T12:52:22.676Z,64.60
2022-08-26T12:57:22.102Z,64.88
2022-08-26T13:02:24.661Z,61.89
2022-08-26T13:07:24.059Z,66.68
2022-08-26T13:12:24.686Z,62.19
2022-08-26T13:17:19.877Z,63.36
2022-08-26T13:22:25.670Z,59.98
2022-08-26T13:27:19.007Z,61.34
2022-08-26T13:32:21.676Z,59.62
2022-08-26T13:37:20.848Z,60.40
2022-08-26T13:42:18.121Z,57.40
2022-08-26T13:47:20.042Z,58.23
2022-08-26T13:52:30.407Z,56.29
2022-08-26T13:57:19.039Z,58.71
2022-08-26T14:02:21.421Z,57.09
2022-08-26T14:07:20.949Z,55.21
2022-08-26T14:12:14.272Z,60.16
2022-08-26T14:17:13.627Z,60.40
2022-08-26T14:22:16.512Z,61.58
2022-08-26T14:27:15.831Z,57.78
2022-08-26T14:32:15.167Z,59.00
2022-08-26T14:37:15.516Z,57.70
2022-08-26T14:42:17.513Z,57.02
2022-08-26T14:47:10.845Z,57.23
2022-08-26T14:52:10.165Z,58.03
2022-08-26T14:57:12.696Z,57.22
2022-08-26T15:02:32.528Z,65.66
2022-08-26T15:07:08.354Z,59.36
2022-08-26T15:12:14.398Z,61.96
2022-08-26T15:22:07.961Z,60.37
2022-08-26T15:27:12.393Z,63.11
2022-08-26T15:32:05.479Z,59.85
2022-08-26T15:37:07.806Z,58.58
2022-08-26T15:47:09.674Z,63.38
2022-08-26T15:52:09.083Z,67.62
2022-08-26T15:57:04.071Z,63.03
2022-08-26T16:02:07.898Z,61.52
2022-08-26T16:07:07.367Z,63.18
2022-08-26T16:12:00.683Z,61.68
2022-08-26T16:17:00.014Z,63.78
2022-08-26T16:22:01.510Z,65.94
2022-08-26T16:27:05.025Z,61.72
2022-08-26T16:31:58.823Z,65.10
2022-08-26T16:37:01.724Z,63.93
2022-08-26T16:42:04.535Z,63.49
2022-08-26T16:46:58.519Z,61.64
2022-08-26T16:51:59.252Z,60.70
2022-08-26T16:56:56.747Z,65.64
2022-08-26T17:01:56.088Z,64.84
2022-08-26T17:17:05.930Z,59.20
2022-08-26T17:22:01.187Z,59.44
2022-08-26T17:26:58.344Z,59.59
2022-08-26T17:31:59.989Z,60.74
2022-08-26T17:36:54.566Z,62.19
2022-08-26T17:41:55.887Z,60.52
2022-08-26T17:46:52.254Z,59.48
2022-08-26T17:51:59.970Z,58.53
2022-08-26T17:56:55.339Z,56.35
2022-08-26T18:01:53.645Z,57.28
2022-08-26T18:06:53.046Z,54.38
2022-08-26T18:11:58.200Z,55.47
2022-08-26T18:16:58.925Z,56.06
2022-08-26T18:21:51.465Z,57.35
2022-08-26T18:26:47.820Z,58.29
2022-08-26T18:31:53.361Z,53.53
2022-08-26T18:36:46.452Z,54.62
2022-08-26T18:41:45.666Z,57.04
2022-08-26T18:46:48.004Z,54.06
2022-08-26T18:51:47.208Z,50.94
2022-08-26T18:56:43.703Z,51.51
2022-08-26T19:01:46.820Z,51.50
2022-08-26T19:06:46.153Z,48.00
2022-08-26T19:11:45.533Z,50.16
2022-08-26T19:16:42.487Z,47.78
2022-08-26T19:21:41.855Z,48.00
2022-08-26T19:31:47.890Z,48.41
2022-08-26T19:36:42.991Z,48.34
2022-08-26T19:41:47.000Z,50.32
2022-08-26T19:46:46.463Z,52.44
2022-08-26T19:51:44.967Z,53.95
2022-08-26T19:56:41.930Z,53.08
2022-08-26T20:01:41.650Z,56.49
2022-08-26T20:06:41.037Z,59.75
2022-08-26T20:11:39.079Z,57.90
2022-08-26T20:16:36.778Z,55.63
2022-08-26T20:21:39.592Z,55.38
2022-08-26T20:26:39.033Z,56.39
2022-08-26T20:31:38.429Z,59.21
2022-08-26T20:36:37.710Z,55.90
2022-08-26T20:41:33.908Z,58.35
2022-08-26T20:46:39.717Z,58.60
2022-08-26T20:51:32.907Z,59.64
2022-08-26T20:56:32.351Z,59.07
2022-08-26T21:01:42.042Z,57.77
2022-08-26T21:06:37.199Z,57.81
2022-08-26T21:11:36.576Z,59.69
2022-08-26T21:16:30.057Z,60.48
2022-08-26T21:21:29.379Z,59.98
2022-08-26T21:26:28.744Z,59.12
2022-08-26T21:31:34.116Z,60.31
2022-08-26T21:36:27.324Z,61.47
2022-08-26T21:41:26.613Z,62.92
2022-08-26T21:46:26.509Z,61.62
2022-08-26T21:51:25.747Z,60.86
2022-08-26T21:56:28.327Z,58.98
2022-08-26T22:01:30.699Z,58.49
2022-08-26T22:06:30.145Z,61.16
2022-08-26T22:28:23.821Z,38.71
2022-08-26T22:34:13.032Z,49.20
2022-08-26T22:39:15.724Z,54.38
2022-08-26T22:44:12.172Z,58.78
2022-08-26T22:49:11.258Z,60.77
2022-08-26T22:54:13.961Z,63.92
2022-08-26T22:59:13.276Z,59.72
2022-08-26T23:04:15.674Z,61.55
2022-08-26T23:09:15.241Z,62.48
2022-08-26T23:14:08.394Z,63.81
2022-08-26T23:19:08.366Z,56.36
2022-08-26T23:24:10.760Z,55.73
2022-08-26T23:29:13.476Z,59.12
2022-08-26T23:34:06.697Z,57.86
2022-08-26T23:39:12.632Z,59.04
2022-08-26T23:44:05.812Z,59.27
2022-08-26T23:49:05.516Z,57.75
2022-08-26T23:54:07.906Z,56.21
2022-08-26T23:59:07.873Z,56.93
